createdAt,value
2023-05-07T00:01:36.133Z,40.73
2023-05-07T00:04:24.684Z,41.60
2023-05-07T00:07:13.047Z,41.27
2023-05-07T00:10:01.377Z,41.50
2023-05-07T00:12:49.734Z,41.17
2023-05-07T00:15:38.122Z,40.97
2023-05-07T00:18:27.813Z,40.27
2023-05-07T00:21:16.265Z,41.80
2023-05-07T00:24:04.870Z,41.30
2023-05-07T00:26:53.790Z,41.03
2023-05-07T00:29:42.136Z,40.07
2023-05-07T00:32:30.504Z,41.70
2023-05-07T00:35:20.222Z,39.87
2023-05-07T00:38:08.594Z,40.70
2023-05-07T00:40:57.037Z,40.50
2023-05-07T00:43:45.965Z,39.97
2023-05-07T00:46:35.171Z,41.07
2023-05-07T00:49:23.813Z,41.00
2023-05-07T00:52:16.443Z,40.40
2023-05-07T00:55:07.929Z,39.97
2023-05-07T00:57:56.331Z,40.00
2023-05-07T01:00:44.818Z,40.50
2023-05-07T01:03:33.152Z,41.50
2023-05-07T01:06:22.772Z,40.17
2023-05-07T01:09:12.701Z,39.17
2023-05-07T01:12:01.307Z,40.03
2023-05-07T01:14:50.824Z,39.40
2023-05-07T01:17:41.529Z,40.50
2023-05-07T01:20:35.202Z,40.17
2023-05-07T01:23:25.653Z,40.00
2023-05-07T01:26:14.031Z,41.83
2023-05-07T01:29:04.303Z,39.50
2023-05-07T01:31:53.900Z,39.10
2023-05-07T01:34:42.623Z,39.60
2023-05-07T01:37:31.329Z,39.90
2023-05-07T01:40:21.426Z,39.07
2023-05-07T01:43:10.575Z,38.60
2023-05-07T01:46:00.169Z,39.87
2023-05-07T01:48:49.257Z,39.63
2023-05-07T01:51:37.911Z,37.90
2023-05-07T01:54:28.872Z,38.77
2023-05-07T01:57:19.673Z,39.17
2023-05-07T02:00:10.255Z,40.03
2023-05-07T02:03:06.644Z,38.70
2023-05-07T02:06:02.924Z,38.77
2023-05-07T02:08:57.198Z,37.83
2023-05-07T02:11:45.617Z,39.10
2023-05-07T02:14:35.948Z,38.27
2023-05-07T02:17:24.397Z,40.67
2023-05-07T02:20:14.500Z,40.33
2023-05-07T02:23:03.973Z,38.60
2023-05-07T02:25:53.145Z,38.80
2023-05-07T02:28:41.509Z,40.07
2023-05-07T02:31:31.334Z,38.17
2023-05-07T02:34:20.107Z,38.27
2023-05-07T02:37:08.489Z,39.20
2023-05-07T02:39:57.117Z,38.97
2023-05-07T02:42:45.498Z,39.33
2023-05-07T02:45:34.450Z,38.57
2023-05-07T02:48:25.452Z,38.60
2023-05-07T02:51:13.840Z,45.87
2023-05-07T02:54:04.216Z,37.20
2023-05-07T02:56:54.018Z,37.80
2023-05-07T02:59:42.356Z,38.87
2023-05-07T03:02:30.851Z,38.33
2023-05-07T03:05:20.640Z,36.90
2023-05-07T03:08:09.057Z,38.03
2023-05-07T03:10:57.446Z,38.30
2023-05-07T03:13:46.200Z,38.27
2023-05-07T03:16:34.608Z,37.10
2023-05-07T03:19:22.958Z,38.63
2023-05-07T03:22:12.622Z,37.67
2023-05-07T03:25:01.005Z,37.30
2023-05-07T03:27:49.292Z,38.93
2023-05-07T03:30:41.071Z,36.97
2023-05-07T03:33:29.432Z,35.70
2023-05-07T03:36:18.921Z,37.40
2023-05-07T03:39:08.928Z,38.43
2023-05-07T03:42:01.811Z,38.80
2023-05-07T03:44:51.394Z,38.43
2023-05-07T03:47:40.207Z,37.90
2023-05-07T03:50:30.747Z,37.10
2023-05-07T03:53:19.293Z,38.07
2023-05-07T03:56:09.687Z,37.70
2023-05-07T03:59:00.994Z,36.57
2023-05-07T04:01:49.741Z,38.40
2023-05-07T04:04:40.347Z,37.30
2023-05-07T04:07:29.775Z,36.60
2023-05-07T04:10:18.650Z,37.80
2023-05-07T04:13:11.023Z,35.67
2023-05-07T04:16:01.045Z,36.80
2023-05-07T04:18:50.504Z,37.77
2023-05-07T04:21:39.269Z,36.80
2023-05-07T04:24:27.735Z,37.40
2023-05-07T04:27:16.774Z,37.77
2023-05-07T04:30:08.072Z,37.47
2023-05-07T04:33:00.275Z,37.40
2023-05-07T04:35:51.452Z,37.50
2023-05-07T04:38:40.085Z,36.70
2023-05-07T04:41:28.712Z,37.00
2023-05-07T04:44:17.835Z,36.70
2023-05-07T04:47:08.692Z,36.10
2023-05-07T04:49:57.294Z,36.87
2023-05-07T04:52:46.293Z,36.07
2023-05-07T04:55:35.455Z,36.60
2023-05-07T04:58:24.300Z,37.90
2023-05-07T05:01:12.789Z,37.10
2023-05-07T05:04:03.609Z,36.77
2023-05-07T05:06:52.218Z,37.40
2023-05-07T05:09:40.624Z,37.30
2023-05-07T05:12:29.689Z,37.60
2023-05-07T05:15:18.405Z,37.90
2023-05-07T05:18:06.994Z,38.00
2023-05-07T05:20:56.971Z,37.73
2023-05-07T05:23:45.898Z,38.03
2023-05-07T05:26:35.461Z,36.83
2023-05-07T05:29:24.724Z,38.37
2023-05-07T05:32:13.082Z,38.20
2023-05-07T05:35:02.076Z,38.00
2023-05-07T05:37:52.761Z,35.27
2023-05-07T05:40:41.502Z,37.43
2023-05-07T05:43:30.075Z,37.60
2023-05-07T05:46:18.680Z,39.03
2023-05-07T05:49:07.157Z,38.77
2023-05-07T05:51:56.848Z,37.90
2023-05-07T05:54:48.321Z,38.97
2023-05-07T05:57:36.991Z,38.17
2023-05-07T06:00:25.667Z,38.90
2023-05-07T06:03:21.778Z,38.07
2023-05-07T06:06:10.393Z,39.67
2023-05-07T06:08:58.795Z,39.00
2023-05-07T06:11:55.616Z,38.83
2023-05-07T06:14:45.106Z,38.80
2023-05-07T06:17:34.113Z,40.10
2023-05-07T06:20:22.558Z,39.70
2023-05-07T06:23:12.165Z,39.67
2023-05-07T06:26:00.573Z,40.30
2023-05-07T06:28:55.782Z,39.63
2023-05-07T06:31:45.322Z,40.07
2023-05-07T06:34:33.748Z,40.33
2023-05-07T06:37:22.134Z,40.40
2023-05-07T06:40:20.806Z,40.77
2023-05-07T06:43:11.006Z,40.40
2023-05-07T06:46:18.566Z,42.37
2023-05-07T06:49:07.168Z,40.37
2023-05-07T06:51:56.543Z,40.87
2023-05-07T06:54:45.318Z,41.07
2023-05-07T06:57:37.322Z,41.37
2023-05-07T07:00:26.101Z,41.80
2023-05-07T07:03:18.789Z,40.57
2023-05-07T07:06:08.278Z,41.90
2023-05-07T07:08:56.790Z,41.57
2023-05-07T07:11:45.272Z,41.30
2023-05-07T07:14:33.742Z,41.70
2023-05-07T07:17:22.144Z,42.27
2023-05-07T07:20:13.203Z,42.20
2023-05-07T07:23:02.886Z,42.37
2023-05-07T07:25:51.393Z,42.17
2023-05-07T07:28:45.609Z,42.37
2023-05-07T07:31:36.539Z,42.30
2023-05-07T07:34:25.031Z,41.90
2023-05-07T07:37:14.819Z,42.87
2023-05-07T07:40:04.861Z,41.60
2023-05-07T07:42:55.121Z,41.90
2023-05-07T07:45:44.937Z,42.47
2023-05-07T07:48:33.476Z,42.80
2023-05-07T07:51:22.234Z,42.80
2023-05-07T07:54:14.193Z,43.10
2023-05-07T07:57:03.410Z,43.80
2023-05-07T07:59:54.419Z,43.03
2023-05-07T08:02:43.216Z,42.70
2023-05-07T08:05:35.487Z,46.60
2023-05-07T08:08:25.029Z,47.40
2023-05-07T08:11:16.711Z,43.93
2023-05-07T08:14:05.940Z,42.77
2023-05-07T08:16:54.929Z,43.50
2023-05-07T08:19:44.145Z,43.87
2023-05-07T08:22:36.364Z,43.90
2023-05-07T08:25:25.157Z,43.67
2023-05-07T08:28:15.016Z,43.20
2023-05-07T08:31:03.670Z,42.30
2023-05-07T08:33:56.692Z,43.33
2023-05-07T08:36:45.150Z,42.47
2023-05-07T08:39:36.747Z,43.17
2023-05-07T08:42:29.572Z,43.60
2023-05-07T08:45:20.273Z,43.70
2023-05-07T08:48:12.295Z,43.50
2023-05-07T08:51:01.093Z,43.97
2023-05-07T08:53:50.890Z,43.60
2023-05-07T08:56:45.254Z,42.47
2023-05-07T08:59:33.774Z,43.80
2023-05-07T09:02:23.667Z,43.17
2023-05-07T09:05:12.338Z,43.80
2023-05-07T09:08:01.475Z,44.30
2023-05-07T09:10:50.463Z,43.57
2023-05-07T09:13:39.918Z,41.70
2023-05-07T09:16:28.694Z,42.93
2023-05-07T09:19:24.804Z,42.50
2023-05-07T09:22:14.644Z,43.10
2023-05-07T09:25:13.357Z,43.00
2023-05-07T09:28:03.439Z,55.17
2023-05-07T09:30:52.302Z,42.50
2023-05-07T09:33:42.311Z,41.43
2023-05-07T09:36:34.131Z,43.30
2023-05-07T09:39:23.178Z,42.90
2023-05-07T09:42:12.516Z,42.60
2023-05-07T09:45:02.085Z,42.13
2023-05-07T09:47:58.522Z,42.53
2023-05-07T09:50:51.394Z,41.57
2023-05-07T09:53:44.223Z,42.27
2023-05-07T09:56:34.335Z,41.30
2023-05-07T09:59:23.798Z,40.57
2023-05-07T10:02:12.565Z,41.40
2023-05-07T10:05:08.444Z,42.10
2023-05-07T10:07:58.326Z,39.50
2023-05-07T10:10:49.287Z,40.80
2023-05-07T10:13:42.199Z,42.67
2023-05-07T10:16:33.715Z,40.60
2023-05-07T10:19:22.268Z,41.30
2023-05-07T10:22:16.171Z,40.53
2023-05-07T10:25:09.366Z,40.23
2023-05-07T10:28:03.523Z,40.97
2023-05-07T10:31:03.465Z,39.83
2023-05-07T10:33:59.119Z,40.43
2023-05-07T10:36:48.519Z,40.77
2023-05-07T10:39:37.443Z,39.90
2023-05-07T10:42:26.250Z,41.73
2023-05-07T10:45:18.576Z,39.80
2023-05-07T10:48:28.718Z,39.20
2023-05-07T10:51:23.167Z,39.73
2023-05-07T10:54:24.778Z,39.37
2023-05-07T10:57:37.788Z,39.70
2023-05-07T11:00:47.939Z,39.47
2023-05-07T11:04:15.222Z,39.13
2023-05-07T11:07:26.234Z,40.33
2023-05-07T11:10:17.735Z,43.13
2023-05-07T11:13:19.611Z,38.60
2023-05-07T11:16:21.013Z,38.73
2023-05-07T11:19:12.680Z,39.37
2023-05-07T11:22:09.472Z,39.13
2023-05-07T11:25:04.104Z,39.30
2023-05-07T11:27:52.792Z,39.60
2023-05-07T11:30:43.979Z,39.43
2023-05-07T11:33:37.069Z,38.50
2023-05-07T11:36:28.435Z,39.10
2023-05-07T11:39:27.785Z,38.50
2023-05-07T11:42:30.007Z,39.73
2023-05-07T11:45:25.735Z,39.40
2023-05-07T11:48:14.705Z,38.80
2023-05-07T11:51:06.637Z,39.20
2023-05-07T11:53:55.272Z,39.83
2023-05-07T11:56:43.586Z,38.77
2023-05-07T11:59:31.955Z,39.20
2023-05-07T12:02:20.392Z,38.67
2023-05-07T12:05:09.350Z,38.53
2023-05-07T12:08:00.196Z,39.30
2023-05-07T12:10:50.989Z,38.70
2023-05-07T12:13:39.587Z,38.87
2023-05-07T12:16:28.298Z,37.97
2023-05-07T12:19:16.933Z,38.83
2023-05-07T12:22:05.779Z,39.43
2023-05-07T12:25:00.703Z,37.70
2023-05-07T12:27:53.815Z,38.00
2023-05-07T12:30:42.327Z,37.57
2023-05-07T12:33:32.042Z,37.37
2023-05-07T12:36:22.150Z,41.43
2023-05-07T12:39:11.014Z,37.33
2023-05-07T12:42:01.877Z,37.43
2023-05-07T12:44:50.687Z,37.37
2023-05-07T12:47:39.178Z,37.93
2023-05-07T12:50:27.636Z,38.23
2023-05-07T12:53:16.162Z,36.30
2023-05-07T12:56:04.911Z,37.83
2023-05-07T12:58:59.494Z,37.97
2023-05-07T13:01:48.216Z,39.20
2023-05-07T13:04:37.077Z,37.80
2023-05-07T13:07:27.750Z,37.90
2023-05-07T13:10:17.071Z,37.63
2023-05-07T13:13:05.838Z,38.03
2023-05-07T13:15:55.648Z,37.07
2023-05-07T13:18:44.912Z,37.57
2023-05-07T13:21:33.869Z,38.97
2023-05-07T13:24:22.249Z,37.30
2023-05-07T13:27:10.669Z,36.57
2023-05-07T13:29:59.100Z,37.40
2023-05-07T13:32:49.039Z,37.57
2023-05-07T13:35:37.588Z,36.33
2023-05-07T13:38:26.032Z,37.47
2023-05-07T13:41:15.304Z,37.20
2023-05-07T13:44:03.783Z,36.10
2023-05-07T13:46:52.277Z,36.83
2023-05-07T13:49:42.060Z,35.93
2023-05-07T13:52:30.468Z,37.27
2023-05-07T13:55:19.656Z,36.63
2023-05-07T13:58:08.003Z,36.17
2023-05-07T14:00:56.423Z,37.77
2023-05-07T14:03:44.955Z,36.63
2023-05-07T14:06:34.779Z,36.30
2023-05-07T14:09:23.150Z,36.53
2023-05-07T14:12:11.584Z,37.30
2023-05-07T14:15:00.135Z,37.90
2023-05-07T14:17:48.921Z,36.80
2023-05-07T14:20:38.699Z,37.47
2023-05-07T14:23:28.809Z,34.53
2023-05-07T14:26:17.228Z,37.50
2023-05-07T14:29:05.672Z,37.57
2023-05-07T14:31:54.037Z,35.30
2023-05-07T14:34:42.438Z,35.20
2023-05-07T14:37:30.842Z,37.20
2023-05-07T14:40:20.601Z,37.20
2023-05-07T14:43:09.034Z,35.97
2023-05-07T14:45:57.448Z,36.13
2023-05-07T14:48:47.014Z,36.87
2023-05-07T14:51:35.414Z,37.40
2023-05-07T14:54:23.833Z,35.83
2023-05-07T14:57:15.752Z,37.27
2023-05-07T15:00:06.045Z,35.50
2023-05-07T15:02:54.563Z,38.47
2023-05-07T15:05:43.550Z,35.40
2023-05-07T15:08:31.898Z,37.00
2023-05-07T15:11:20.288Z,36.43
2023-05-07T15:14:10.177Z,34.83
2023-05-07T15:16:58.507Z,37.00
2023-05-07T15:19:46.881Z,37.70
2023-05-07T15:22:37.066Z,37.67
2023-05-07T15:25:25.507Z,37.13
2023-05-07T15:28:13.908Z,38.23
2023-05-07T15:31:03.631Z,37.77
2023-05-07T15:33:52.926Z,37.43
2023-05-07T15:36:41.348Z,37.90
2023-05-07T15:39:29.778Z,36.80
2023-05-07T15:42:18.201Z,36.07
2023-05-07T15:45:07.921Z,37.40
2023-05-07T15:47:57.739Z,37.50
2023-05-07T15:50:46.670Z,35.80
2023-05-07T15:53:35.755Z,38.40
2023-05-07T15:56:25.299Z,38.40
2023-05-07T15:59:15.473Z,38.33
2023-05-07T16:02:03.936Z,38.40
2023-05-07T16:04:53.696Z,36.23
2023-05-07T16:07:44.173Z,38.80
2023-05-07T16:10:32.611Z,38.50
2023-05-07T16:13:21.178Z,38.73
2023-05-07T16:16:09.814Z,37.27
2023-05-07T16:18:58.290Z,40.60
2023-05-07T16:21:48.284Z,38.40
2023-05-07T16:24:36.729Z,37.17
2023-05-07T16:27:25.221Z,36.50
2023-05-07T16:30:14.299Z,36.70
2023-05-07T16:33:02.783Z,39.53
2023-05-07T16:35:54.528Z,38.73
2023-05-07T16:38:44.400Z,39.03
2023-05-07T16:41:32.843Z,38.13
2023-05-07T16:44:21.382Z,38.80
2023-05-07T16:47:09.804Z,39.03
2023-05-07T16:49:58.980Z,41.03
2023-05-07T16:52:47.438Z,39.70
2023-05-07T16:55:39.437Z,39.57
2023-05-07T16:58:28.339Z,38.80
2023-05-07T17:01:18.943Z,40.07
2023-05-07T17:04:07.426Z,40.13
2023-05-07T17:06:57.813Z,40.37
2023-05-07T17:09:46.241Z,40.23
2023-05-07T17:12:37.685Z,40.57
2023-05-07T17:15:26.369Z,39.73
2023-05-07T17:18:15.373Z,40.63
2023-05-07T17:21:03.900Z,40.37
2023-05-07T17:23:52.254Z,41.17
2023-05-07T17:26:43.118Z,40.83
2023-05-07T17:29:34.080Z,40.10
2023-05-07T17:32:22.570Z,41.70
2023-05-07T17:35:11.240Z,40.73
2023-05-07T17:37:59.678Z,41.00
2023-05-07T17:40:48.526Z,41.03
2023-05-07T17:43:36.928Z,42.10
2023-05-07T17:46:26.806Z,41.73
2023-05-07T17:49:16.544Z,40.67
2023-05-07T17:52:05.204Z,40.77
2023-05-07T17:54:53.565Z,41.23
2023-05-07T17:57:41.931Z,41.57
2023-05-07T18:00:30.490Z,41.97
2023-05-07T18:03:20.527Z,41.33
2023-05-07T18:06:10.200Z,41.67
2023-05-07T18:08:58.802Z,41.53
2023-05-07T18:11:47.199Z,41.33
2023-05-07T18:14:35.700Z,40.97
2023-05-07T18:17:26.408Z,42.07
2023-05-07T18:20:16.481Z,42.13
2023-05-07T18:23:05.030Z,41.60
2023-05-07T18:25:53.586Z,41.70
2023-05-07T18:28:42.147Z,41.67
2023-05-07T18:31:30.566Z,41.33
2023-05-07T18:34:19.054Z,42.90
2023-05-07T18:37:08.799Z,42.93
2023-05-07T18:39:57.125Z,41.40
2023-05-07T18:42:45.588Z,43.50
2023-05-07T18:45:34.813Z,42.20
2023-05-07T18:48:23.210Z,41.80
2023-05-07T18:51:12.760Z,42.57
2023-05-07T18:54:03.325Z,43.40
2023-05-07T18:56:52.030Z,42.60
2023-05-07T18:59:40.475Z,44.30
2023-05-07T19:02:28.846Z,43.17
2023-05-07T19:05:18.446Z,43.27
2023-05-07T19:08:07.196Z,42.47
2023-05-07T19:10:57.715Z,43.37
2023-05-07T19:13:46.121Z,43.90
2023-05-07T19:16:34.534Z,42.47
2023-05-07T19:19:22.963Z,42.97
2023-05-07T19:22:11.479Z,42.90
2023-05-07T19:24:59.888Z,43.00
2023-05-07T19:27:50.945Z,42.60
2023-05-07T19:30:40.780Z,43.67
2023-05-07T19:33:29.899Z,43.43
2023-05-07T19:36:18.396Z,43.07
2023-05-07T19:39:06.783Z,44.03
2023-05-07T19:41:55.189Z,42.97
2023-05-07T19:44:44.946Z,43.70
2023-05-07T19:47:33.624Z,43.50
2023-05-07T19:50:22.285Z,43.80
2023-05-07T19:53:10.882Z,43.50
2023-05-07T19:56:04.513Z,43.60
2023-05-07T19:58:53.079Z,42.97
2023-05-07T20:01:42.906Z,44.03
2023-05-07T20:04:33.566Z,43.20
2023-05-07T20:07:21.893Z,43.37
2023-05-07T20:10:11.048Z,44.80
2023-05-07T20:12:59.671Z,44.30
2023-05-07T20:15:48.502Z,43.63
2023-05-07T20:18:38.222Z,44.93
2023-05-07T20:21:26.869Z,42.80
2023-05-07T20:24:15.279Z,43.80
2023-05-07T20:27:04.923Z,44.77
2023-05-07T20:29:53.599Z,46.03
2023-05-07T20:32:42.121Z,43.43
2023-05-07T20:35:32.232Z,44.73
2023-05-07T20:38:20.934Z,43.50
2023-05-07T20:41:10.634Z,43.80
2023-05-07T20:44:00.411Z,43.97
2023-05-07T20:46:48.825Z,44.27
2023-05-07T20:49:37.220Z,44.60
2023-05-07T20:52:27.004Z,43.97
2023-05-07T20:55:15.594Z,43.30
2023-05-07T20:58:03.940Z,49.17
2023-05-07T21:00:52.783Z,44.20
2023-05-07T21:03:41.399Z,44.90
2023-05-07T21:06:30.081Z,44.20
2023-05-07T21:09:19.905Z,45.70
2023-05-07T21:12:08.395Z,43.33
2023-05-07T21:14:58.053Z,46.40
2023-05-07T21:17:46.514Z,45.37
2023-05-07T21:20:35.037Z,46.40
2023-05-07T21:23:23.402Z,43.73
2023-05-07T21:26:18.914Z,44.00
2023-05-07T21:29:08.824Z,43.60
2023-05-07T21:31:57.284Z,44.13
2023-05-07T21:34:46.657Z,43.50
2023-05-07T21:37:35.011Z,43.83
2023-05-07T21:40:23.373Z,44.30
2023-05-07T21:43:13.102Z,44.17
2023-05-07T21:46:03.749Z,43.40
2023-05-07T21:48:52.121Z,47.30
2023-05-07T21:51:40.662Z,44.60
2023-05-07T21:54:29.047Z,44.20
2023-05-07T21:57:17.567Z,44.80
2023-05-07T22:00:09.219Z,45.40
2023-05-07T22:02:58.476Z,49.90
2023-05-07T22:05:48.083Z,44.10
2023-05-07T22:08:38.108Z,44.00
2023-05-07T22:11:26.659Z,45.30
2023-05-07T22:14:15.032Z,44.30
2023-05-07T22:17:04.774Z,45.10
2023-05-07T22:19:53.267Z,47.10
2023-05-07T22:22:51.232Z,45.30
2023-05-07T22:25:40.517Z,44.27
2023-05-07T22:28:28.907Z,44.37
2023-05-07T22:31:17.319Z,44.73
2023-05-07T22:34:07.098Z,44.93
2023-05-07T22:36:55.448Z,45.37
2023-05-07T22:39:43.876Z,43.40
2023-05-07T22:42:32.255Z,44.60
2023-05-07T22:45:21.146Z,43.50
2023-05-07T22:48:09.952Z,43.90
2023-05-07T22:50:59.742Z,44.07
2023-05-07T22:53:48.137Z,44.47
2023-05-07T22:56:36.538Z,43.80
2023-05-07T22:59:25.000Z,44.77
2023-05-07T23:02:13.487Z,43.90
2023-05-07T23:05:02.184Z,45.53
2023-05-07T23:07:52.179Z,44.50
2023-05-07T23:10:40.589Z,44.03
2023-05-07T23:13:28.974Z,43.37
2023-05-07T23:16:17.340Z,42.80
2023-05-07T23:19:05.744Z,43.97
2023-05-07T23:21:54.096Z,46.53
2023-05-07T23:24:44.089Z,43.73
2023-05-07T23:27:32.474Z,44.20
2023-05-07T23:30:21.094Z,44.87
2023-05-07T23:33:09.586Z,44.30
2023-05-07T23:36:00.993Z,44.10
2023-05-07T23:38:49.338Z,44.73
2023-05-07T23:41:39.043Z,44.50
2023-05-07T23:44:27.408Z,43.70
2023-05-07T23:47:15.897Z,43.23
2023-05-07T23:50:04.409Z,43.70
2023-05-07T23:52:52.739Z,43.77
2023-05-07T23:55:41.177Z,44.30
2023-05-07T23:58:30.937Z,44.07
